Hovedside
METAR-TAF:

METAR-TAF

Lufthavner :

Amman, Jordan

breddegrad: 31-59N, lengdegrad: 035-59E, høyde over havet: 767 m

Gjeldene værobservasjon

Denne rapporten ble laget for 42 minutter siden, klokken 10:00 UTC
Flau vind
Temperatur 33°C
Luftfuktighet 20%
Trykk 1012 hPa
Sikt: 4000 m
dis

METAR: OJAM 201000Z 00000KT 4000 HZ NSC 33/07 Q1012 NOSIG

Tid: 13:42 (10:42 UTC)

Varsel

Denne rapporten ble laget for 5 timer og 45 minutter siden, klokken 04:57 UTC
Varsel gyldig fra 20. klokken 06 UTC til 21. klokken 12 UTC
Vind kt fra Nord
Sikt: 5000 m
dis
Blir
fra 20. klokken 09 UTC til 20. klokken 11 UTC
Vind 10 kt fra Vest-nordvest

TAF: OJAM 200457Z 2006/2112 00000KT 5000 HZ NSC BECMG 2009/2011 30010KT

Værobservasjoner og værvarsel for over 4000 flyplasser (METAR- og TAF-rapporter).

Tilgjengelige stasjoner er representert av de røde og gule prikkene på kartet.

Hold musepekeren over prikken for å se navnet på stasjonen.

Klikk så for å se værobservasjoner og -varsler.

For å forandre kartet kan du klikke på den grønne knappen med svart kryss for å zoome inn, på den grønne knappen med strek for å zoome ut, eller på de grønne pilene for å se tilstøtende kart.


METAR-TAF: